Time;durP1;ratioP1;P1;durP2;ratioP2;P2;SDS_P1;SDS_P2;PMS_P1;PMS_P2;Temp;Humidity;BMP_temperature;BMP_pressure;BME280_temperature;BME280_humidity;BME280_pressure;Samples;Min_cycle;Max_cycle;Signal;HPM_P1;HPM_P2
2022/10/25 00:00:48;;;;;;;9.10;5.10;;;;;;;14.43;94.24;99924.96;126874;1286;107563;-75
2022/10/25 00:04:07;;;;;;;8.70;5.50;;;;;;;14.44;94.19;99926.44;126854;1279;107495;-75
2022/10/25 00:07:12;;;;;;;11.30;5.80;;;;;;;14.43;94.41;99922.86;126996;1276;107303;-75
2022/10/25 00:10:18;;;;;;;7.30;4.80;;;;;;;14.44;94.31;99926.11;127035;1279;107385;-75
2022/10/25 00:13:23;;;;;;;8.10;4.90;;;;;;;14.45;94.22;99923.64;126852;1277;107645;-75
2022/10/25 00:16:33;;;;;;;6.40;4.80;;;;;;;14.45;94.21;99931.38;126841;1278;107665;-75
2022/10/25 00:19:38;;;;;;;5.40;4.60;;;;;;;14.43;94.09;99934.30;126922;1278;107254;-75
2022/10/25 00:22:44;;;;;;;7.50;4.70;;;;;;;14.41;94.05;99936.77;126840;1285;107515;-75
2022/10/25 00:25:49;;;;;;;7.40;4.50;;;;;;;14.37;94.11;99939.27;127111;1285;107478;-75
2022/10/25 00:28:55;;;;;;;7.40;4.80;;;;;;;14.36;94.33;99932.13;126886;1279;107235;-75
2022/10/25 00:32:01;;;;;;;6.50;4.90;;;;;;;14.37;94.18;99931.86;126912;1286;107513;-78
2022/10/25 00:35:07;;;;;;;6.50;4.50;;;;;;;14.36;94.05;99929.95;126928;1279;107533;-76
2022/10/25 00:38:13;;;;;;;9.30;5.30;;;;;;;14.32;94.16;99925.54;126822;1286;107258;-75
2022/10/25 00:41:21;;;;;;;7.30;4.70;;;;;;;14.30;94.13;99927.61;126827;1278;107558;-76
2022/10/25 00:44:46;;;;;;;7.10;4.80;;;;;;;14.27;94.25;99936.23;127018;1279;107377;-75
2022/10/25 00:47:57;;;;;;;7.50;4.70;;;;;;;14.27;94.23;99935.58;126885;1278;107393;-75
2022/10/25 00:51:04;;;;;;;6.80;4.90;;;;;;;14.26;94.11;99925.42;126906;1284;107218;-76
2022/10/25 00:54:15;;;;;;;6.10;4.50;;;;;;;14.24;94.23;99926.73;126832;1279;107504;-76
2022/10/25 00:57:25;;;;;;;5.50;4.10;;;;;;;14.23;94.14;99926.92;126882;1279;107295;-76
2022/10/25 01:00:30;;;;;;;10.20;4.40;;;;;;;14.22;94.06;99926.50;126883;1279;107542;-76
2022/10/25 01:03:39;;;;;;;7.30;5.50;;;;;;;14.21;93.97;99941.65;126912;1299;107267;-75
2022/10/25 01:06:49;;;;;;;8.20;5.80;;;;;;;14.20;93.95;99941.54;126797;1286;107519;-77
2022/10/25 01:09:55;;;;;;;12.70;6.80;;;;;;;14.20;94.30;99937.98;127253;1279;107651;-75
2022/10/25 01:13:01;;;;;;;12.10;6.70;;;;;;;14.21;94.36;99928.05;127148;1278;108671;-75
2022/10/25 01:16:18;;;;;;;10.90;7.10;;;;;;;14.22;94.45;99941.35;126908;1285;107525;-75
2022/10/25 01:19:51;;;;;;;9.30;6.70;;;;;;;14.21;94.26;99942.27;127009;1286;107385;-75
2022/10/25 01:23:03;;;;;;;11.10;7.40;;;;;;;14.22;94.49;99936.20;126854;1280;107326;-74
2022/10/25 01:26:34;;;;;;;11.40;6.60;;;;;;;14.18;94.43;99936.40;126951;1279;106036;-75
2022/10/25 01:30:04;;;;;;;12.10;7.60;;;;;;;14.17;94.35;99938.41;126922;1279;107172;-76
2022/10/25 01:33:18;;;;;;;9.10;6.70;;;;;;;14.15;94.42;99935.16;127041;1279;106169;-75
2022/10/25 01:36:36;;;;;;;10.40;6.70;;;;;;;14.14;94.36;99933.99;126989;1279;107401;-75
2022/10/25 01:39:48;;;;;;;9.50;6.70;;;;;;;14.13;94.45;99930.52;127021;1285;108060;-75
2022/10/25 01:43:03;;;;;;;9.00;6.50;;;;;;;14.11;94.60;99924.16;126990;1286;106488;-76
2022/10/25 01:46:17;;;;;;;8.20;5.50;;;;;;;14.09;94.48;99917.95;126857;1286;107256;-75
2022/10/25 01:49:28;;;;;;;10.50;7.20;;;;;;;14.08;94.35;99914.71;126915;1287;107272;-76
2022/10/25 01:52:34;;;;;;;12.50;7.80;;;;;;;14.07;94.42;99920.56;127139;1280;106567;-76
2022/10/25 01:55:51;;;;;;;11.30;7.60;;;;;;;14.04;94.47;99918.24;126882;1286;107552;-76
2022/10/25 01:59:22;;;;;;;10.50;6.50;;;;;;;13.98;94.31;99921.15;126793;1279;107463;-77
2022/10/25 02:02:36;;;;;;;8.90;5.90;;;;;;;13.91;94.15;99914.25;126822;1295;107275;-76
2022/10/25 02:05:56;;;;;;;8.00;6.40;;;;;;;13.86;94.20;99912.69;126910;1279;105471;-76
2022/10/25 02:09:06;;;;;;;10.10;6.80;;;;;;;13.83;94.43;99906.11;126874;1279;107975;-75
2022/10/25 02:12:24;;;;;;;9.60;7.00;;;;;;;13.78;94.13;99909.30;126876;1279;107554;-75
2022/10/25 02:15:36;;;;;;;9.10;5.70;;;;;;;13.71;94.11;99905.65;126832;1279;106196;-75
2022/10/25 02:18:43;;;;;;;;;;;;;;;13.67;94.33;99900.64;126912;1287;107168;-75
2022/10/25 02:21:51;;;;;;;6.70;5.20;;;;;;;13.65;94.15;99891.70;126847;1279;107570;-76
2022/10/25 02:24:57;;;;;;;7.20;5.80;;;;;;;13.64;94.12;99887.80;126871;1287;107535;-75
2022/10/25 02:28:07;;;;;;;7.70;6.00;;;;;;;13.62;94.14;99896.05;126924;1280;106822;-75
2022/10/25 02:31:19;;;;;;;8.10;5.90;;;;;;;13.62;93.91;99909.33;126875;1272;107313;-75
2022/10/25 02:34:23;;;;;;;;;;;;;;;13.60;93.96;99923.10;126924;1286;107783;-75
2022/10/25 02:37:29;;;;;;;10.70;8.80;;;;;;;13.57;93.88;99924.92;126915;1279;107504;-76
2022/10/25 02:40:35;;;;;;;8.30;6.30;;;;;;;13.48;93.71;99925.20;126859;1286;106634;-75
2022/10/25 02:43:40;;;;;;;7.50;5.50;;;;;;;13.38;93.74;99923.20;126886;1284;107526;-76
2022/10/25 02:46:46;;;;;;;6.40;5.50;;;;;;;13.33;93.62;99928.36;126874;1286;106322;-76
2022/10/25 02:49:51;;;;;;;7.50;5.80;;;;;;;13.29;93.82;99928.42;126807;1279;107318;-75
2022/10/25 02:52:56;;;;;;;9.30;6.20;;;;;;;13.27;93.66;99926.16;126891;1280;107382;-77
2022/10/25 02:56:04;;;;;;;7.30;6.00;;;;;;;13.24;93.55;99920.79;127046;1286;106606;-77
2022/10/25 02:59:12;;;;;;;7.50;5.10;;;;;;;13.18;93.72;99916.52;127051;1285;107730;-76
2022/10/25 03:02:17;;;;;;;7.60;5.10;;;;;;;13.13;93.41;99911.06;127028;1286;107352;-76
2022/10/25 03:05:23;;;;;;;7.00;5.00;;;;;;;13.11;93.56;99912.91;126984;1285;107661;-76
2022/10/25 03:08:29;;;;;;;7.60;5.60;;;;;;;13.08;93.62;99909.08;126934;1285;107378;-75
2022/10/25 03:11:34;;;;;;;7.50;5.10;;;;;;;13.08;93.61;99908.95;126970;1283;105629;-75
2022/10/25 03:14:40;;;;;;;7.60;5.40;;;;;;;13.06;93.57;99909.83;126951;1280;107524;-75
2022/10/25 03:17:45;;;;;;;6.20;4.80;;;;;;;13.05;93.60;99905.91;126818;1285;107370;-76
2022/10/25 03:20:50;;;;;;;6.50;4.80;;;;;;;13.02;93.53;99906.59;126964;1279;106726;-75
2022/10/25 03:23:56;;;;;;;6.40;5.10;;;;;;;12.95;93.31;99908.49;126814;1278;107540;-76
2022/10/25 03:27:01;;;;;;;8.90;5.10;;;;;;;12.90;93.47;99909.20;126901;1278;107513;-76
2022/10/25 03:30:08;;;;;;;8.40;5.70;;;;;;;12.87;93.44;99906.59;127313;1285;107598;-75
2022/10/25 03:33:14;;;;;;;8.00;5.90;;;;;;;12.85;93.78;99906.01;127172;1278;108173;-76
2022/10/25 03:36:19;;;;;;;7.60;5.30;;;;;;;12.84;93.94;99903.31;127181;1286;106572;-76
2022/10/25 03:39:25;;;;;;;7.40;4.80;;;;;;;12.82;93.56;99905.55;127137;1286;106943;-75
2022/10/25 03:42:30;;;;;;;8.30;5.30;;;;;;;12.78;93.59;99902.94;127146;1284;106721;-75
2022/10/25 03:45:36;;;;;;;8.00;5.70;;;;;;;12.75;93.66;99905.90;127147;1286;107548;-76
2022/10/25 03:48:41;;;;;;;7.80;6.20;;;;;;;12.75;93.80;99899.45;126993;1279;107359;-75
2022/10/25 03:51:46;;;;;;;7.00;5.30;;;;;;;12.75;93.67;99901.66;126875;1285;107569;-75
2022/10/25 03:54:52;;;;;;;8.60;5.40;;;;;;;12.74;93.63;99896.17;126873;1278;107539;-76
2022/10/25 03:57:57;;;;;;;8.20;6.10;;;;;;;12.76;93.78;99898.46;126913;1286;107446;-76
2022/10/25 04:01:03;;;;;;;8.70;5.90;;;;;;;12.81;93.75;99901.27;126951;1283;107514;-77
2022/10/25 04:04:08;;;;;;;9.00;5.80;;;;;;;12.83;93.67;99897.83;126942;1286;107537;-76
2022/10/25 04:07:13;;;;;;;7.60;6.00;;;;;;;12.85;93.68;99897.08;127008;1286;107542;-76
2022/10/25 04:10:19;;;;;;;9.00;6.00;;;;;;;12.87;93.74;99901.88;126820;1284;107556;-76
2022/10/25 04:13:24;;;;;;;7.90;6.10;;;;;;;12.87;93.66;99895.65;126834;1286;106083;-75
2022/10/25 04:16:30;;;;;;;10.90;6.60;;;;;;;12.88;94.06;99897.17;126881;1295;107400;-76
2022/10/25 04:19:35;;;;;;;9.90;7.00;;;;;;;12.90;94.03;99896.14;126904;1289;107555;-76
2022/10/25 04:22:40;;;;;;;9.70;7.30;;;;;;;12.93;94.25;99895.13;126964;1285;107551;-76
2022/10/25 04:25:46;;;;;;;8.60;6.40;;;;;;;12.93;94.31;99898.27;126932;1279;108520;-76
2022/10/25 04:28:53;;;;;;;10.60;7.00;;;;;;;12.93;94.10;99900.85;126834;1292;107480;-75
2022/10/25 04:31:58;;;;;;;9.50;6.80;;;;;;;12.91;94.13;99898.59;127210;1286;107316;-75
2022/10/25 04:35:04;;;;;;;11.20;8.40;;;;;;;12.88;94.10;99901.34;127151;1290;107455;-76
2022/10/25 04:38:11;;;;;;;12.00;7.80;;;;;;;12.87;94.28;99900.70;126866;1280;107617;-76
2022/10/25 04:41:17;;;;;;;13.50;8.00;;;;;;;12.82;94.11;99900.72;126938;1299;107416;-76
2022/10/25 04:44:23;;;;;;;10.40;6.30;;;;;;;12.78;94.18;99905.45;126921;1282;106412;-77
2022/10/25 04:47:32;;;;;;;9.00;7.20;;;;;;;12.78;94.54;99909.20;126923;1280;107538;-76
2022/10/25 04:50:39;;;;;;;10.50;7.30;;;;;;;12.78;94.34;99910.90;127092;1287;107279;-76
2022/10/25 04:53:44;;;;;;;10.30;7.80;;;;;;;12.79;94.52;99909.23;127241;1285;107463;-77
2022/10/25 04:56:49;;;;;;;10.80;7.40;;;;;;;12.82;94.71;99911.22;127121;1279;107518;-76
2022/10/25 04:59:56;;;;;;;11.10;7.60;;;;;;;12.82;94.60;99916.04;126945;1288;107541;-77
2022/10/25 05:03:02;;;;;;;10.80;7.80;;;;;;;12.78;94.70;99917.89;127005;1284;107650;-76
2022/10/25 05:06:09;;;;;;;11.70;7.90;;;;;;;12.74;94.64;99913.77;127086;1285;107564;-76
2022/10/25 05:09:14;;;;;;;10.30;8.20;;;;;;;12.71;94.63;99915.98;127100;1292;107483;-77
2022/10/25 05:12:19;;;;;;;9.50;6.80;;;;;;;12.67;94.75;99919.17;127223;1285;107533;-76
2022/10/25 05:15:25;;;;;;;12.30;7.40;;;;;;;12.62;94.56;99918.33;127147;1280;107327;-77
2022/10/25 05:18:32;;;;;;;9.70;7.40;;;;;;;12.54;94.23;99919.77;127141;1291;107534;-76
2022/10/25 05:21:37;;;;;;;10.10;6.60;;;;;;;12.48;94.23;99921.70;126941;1286;107324;-76
2022/10/25 05:24:42;;;;;;;8.80;6.60;;;;;;;12.44;94.25;99921.37;126852;1286;107454;-76
2022/10/25 05:27:48;;;;;;;9.00;7.10;;;;;;;12.38;94.18;99921.90;126881;1285;107539;-79
2022/10/25 05:30:53;;;;;;;10.50;6.50;;;;;;;12.34;94.38;99931.65;126913;1288;107521;-78
2022/10/25 05:34:00;;;;;;;8.80;6.80;;;;;;;12.30;94.43;99931.89;126849;1279;107537;-75
2022/10/25 05:37:06;;;;;;;9.30;6.90;;;;;;;12.27;94.18;99934.50;126905;1292;106302;-77
2022/10/25 05:40:13;;;;;;;8.20;6.50;;;;;;;12.27;94.17;99932.42;126947;1284;107513;-74
2022/10/25 05:43:18;;;;;;;8.70;6.40;;;;;;;12.26;93.90;99933.73;126900;1280;107477;-74
2022/10/25 05:46:24;;;;;;;10.20;7.10;;;;;;;12.24;93.93;99940.20;127070;1280;107504;-74
2022/10/25 05:49:30;;;;;;;8.50;6.00;;;;;;;12.24;94.03;99946.69;126992;1286;107654;-74
2022/10/25 05:52:35;;;;;;;8.20;6.50;;;;;;;12.27;94.13;99945.48;127003;1286;107627;-74
2022/10/25 05:55:40;;;;;;;8.80;6.30;;;;;;;12.28;93.91;99947.27;127204;1287;107344;-72
2022/10/25 05:58:46;;;;;;;7.80;6.10;;;;;;;12.30;93.90;99949.92;127085;1279;107369;-72
2022/10/25 06:01:52;;;;;;;7.20;6.50;;;;;;;12.32;93.74;99954.14;126907;1289;105665;-72
2022/10/25 06:04:57;;;;;;;8.00;5.70;;;;;;;12.35;94.01;99959.53;126883;1285;107346;-72
2022/10/25 06:08:02;;;;;;;9.00;6.40;;;;;;;12.38;93.73;99963.13;126930;1292;107393;-74
2022/10/25 06:11:10;;;;;;;8.50;7.00;;;;;;;12.45;94.22;99960.34;126959;1286;107615;-80
2022/10/25 06:14:16;;;;;;;10.90;7.80;;;;;;;12.56;94.31;99965.52;126934;1285;107241;-80
2022/10/25 06:17:21;;;;;;;9.80;8.40;;;;;;;12.70;94.66;99962.92;126913;1286;107415;-80
2022/10/25 06:20:26;;;;;;;12.30;7.80;;;;;;;12.82;94.71;99969.40;127015;1285;106558;-80
2022/10/25 06:23:33;;;;;;;9.40;7.30;;;;;;;12.93;94.95;99968.87;127019;1301;107234;-80
2022/10/25 06:26:38;;;;;;;9.60;7.80;;;;;;;13.06;94.97;99969.40;127001;1283;107543;-81
2022/10/25 06:29:44;;;;;;;11.90;8.10;;;;;;;13.18;95.06;99968.48;127217;1284;107226;-80
2022/10/25 06:32:49;;;;;;;11.10;8.70;;;;;;;13.29;95.28;99968.63;127311;1285;107021;-81
2022/10/25 06:35:57;;;;;;;12.30;8.80;;;;;;;13.39;95.12;99971.48;127116;1285;106112;-80
2022/10/25 06:39:03;;;;;;;11.90;8.00;;;;;;;13.48;95.25;99976.29;126974;1280;107836;-81
2022/10/25 06:42:08;;;;;;;9.70;7.90;;;;;;;13.57;95.32;99979.18;127007;1286;106660;-80
2022/10/25 06:45:13;;;;;;;12.30;9.10;;;;;;;13.68;95.30;99982.70;127001;1280;107487;-80
2022/10/25 06:48:19;;;;;;;9.90;8.00;;;;;;;13.78;95.33;99987.24;126944;1279;107503;-80
2022/10/25 06:51:26;;;;;;;10.50;7.90;;;;;;;13.88;95.39;99988.15;126928;1296;107539;-78
2022/10/25 06:54:31;;;;;;;9.70;6.50;;;;;;;13.94;95.38;99986.80;126997;1278;106414;-77
2022/10/25 06:57:37;;;;;;;8.40;7.40;;;;;;;14.01;95.31;99986.02;127052;1295;107651;-78
2022/10/25 07:00:42;;;;;;;11.00;8.30;;;;;;;14.06;95.27;99984.45;127236;1285;107493;-78
2022/10/25 07:03:49;;;;;;;11.60;8.30;;;;;;;14.12;95.16;99982.02;126973;1286;107309;-79
2022/10/25 07:06:56;;;;;;;10.90;8.10;;;;;;;14.14;95.30;99979.81;127080;1284;108630;-79
2022/10/25 07:10:01;;;;;;;10.10;7.00;;;;;;;14.13;95.34;99982.02;127611;1278;107521;-79
2022/10/25 07:13:06;;;;;;;10.90;8.00;;;;;;;14.15;95.16;99984.94;127490;1284;107130;-80
2022/10/25 07:16:13;;;;;;;12.80;8.70;;;;;;;14.17;95.29;99986.62;127216;1285;107529;-77
2022/10/25 07:19:18;;;;;;;11.50;7.70;;;;;;;14.19;95.11;99987.64;127495;1279;107434;-78
2022/10/25 07:22:24;;;;;;;10.90;8.00;;;;;;;14.19;95.35;99981.23;127508;1286;107643;-79
2022/10/25 07:25:29;;;;;;;10.30;7.30;;;;;;;14.19;95.33;99981.99;127134;1284;107522;-81
2022/10/25 07:28:35;;;;;;;10.20;7.40;;;;;;;14.21;95.15;99985.98;127101;1280;108478;-80
2022/10/25 07:31:43;;;;;;;12.20;9.30;;;;;;;14.21;95.15;99988.66;127291;1285;107524;-78
2022/10/25 07:34:48;;;;;;;11.50;9.00;;;;;;;14.19;95.25;99988.84;127151;1285;107567;-78
2022/10/25 07:37:54;;;;;;;11.20;7.80;;;;;;;14.16;95.18;99991.57;127044;1278;107534;-78
2022/10/25 07:41:00;;;;;;;10.40;7.50;;;;;;;14.12;95.33;99990.17;126884;1279;107372;-77
2022/10/25 07:44:05;;;;;;;10.50;7.60;;;;;;;14.10;95.19;99993.00;126885;1279;107385;-77
2022/10/25 07:47:11;;;;;;;11.00;8.00;;;;;;;14.09;95.32;99996.29;126920;1279;105979;-77
2022/10/25 07:50:18;;;;;;;11.20;8.60;;;;;;;14.15;95.21;99987.98;126962;1279;107622;-78
2022/10/25 07:53:23;;;;;;;10.50;7.50;;;;;;;14.22;95.37;99984.47;126883;1278;108059;-78
2022/10/25 07:56:29;;;;;;;9.40;7.60;;;;;;;14.29;95.51;99982.83;126885;1296;108084;-77
2022/10/25 07:59:34;;;;;;;10.40;8.30;;;;;;;14.39;95.33;99979.91;126920;1284;107325;-80
2022/10/25 08:02:40;;;;;;;10.70;7.60;;;;;;;14.47;95.30;99984.49;127010;1279;108153;-78
2022/10/25 08:05:46;;;;;;;9.90;7.60;;;;;;;14.56;95.25;99986.04;127084;1285;107952;-79
2022/10/25 08:08:52;;;;;;;10.80;7.00;;;;;;;14.65;95.34;99984.31;127168;1278;107433;-79
2022/10/25 08:11:58;;;;;;;11.50;6.70;;;;;;;14.71;95.07;99981.02;127173;1285;107642;-80
2022/10/25 08:15:03;;;;;;;11.00;6.90;;;;;;;14.79;95.08;99979.58;126958;1286;107502;-80
2022/10/25 08:18:09;;;;;;;8.50;6.30;;;;;;;14.86;94.81;99980.91;126963;1286;105960;-80
2022/10/25 08:21:16;;;;;;;9.20;6.50;;;;;;;14.95;94.94;99981.52;126967;1280;107591;-80
2022/10/25 08:24:21;;;;;;;10.20;6.00;;;;;;;15.02;94.81;99981.77;126883;1286;107512;-77
2022/10/25 08:27:26;;;;;;;9.70;5.70;;;;;;;15.08;94.59;99983.04;126909;1271;107513;-77
2022/10/25 08:30:32;;;;;;;10.10;6.10;;;;;;;15.12;94.55;99986.77;127192;1285;106397;-78
2022/10/25 08:33:37;;;;;;;10.30;6.50;;;;;;;15.19;94.67;99992.58;127171;1278;107410;-76
2022/10/25 08:36:43;;;;;;;10.30;5.90;;;;;;;15.25;94.48;99993.11;127206;1279;107507;-77
2022/10/25 08:39:48;;;;;;;8.70;5.60;;;;;;;15.29;94.18;99990.75;127155;1279;107445;-79
2022/10/25 08:43:05;;;;;;;9.70;5.80;;;;;;;15.34;94.04;99995.27;127164;1279;107535;-78
2022/10/25 08:46:16;;;;;;;6.30;5.30;;;;;;;15.38;93.93;99992.88;127158;1286;107391;-78
2022/10/25 08:49:27;;;;;;;8.60;5.40;;;;;;;15.47;94.07;99999.38;127230;1286;107440;-76
2022/10/25 08:52:37;;;;;;;9.80;5.40;;;;;;;15.55;94.22;99997.44;127211;1278;107489;-77
2022/10/25 08:55:45;;;;;;;7.20;5.00;;;;;;;15.63;94.11;99998.16;127004;1280;107635;-77
2022/10/25 08:58:54;;;;;;;7.00;4.20;;;;;;;15.71;94.13;99996.68;127071;1278;107497;-77
2022/10/25 09:02:01;;;;;;;9.00;5.40;;;;;;;15.83;94.07;99993.29;127121;1286;107498;-77
2022/10/25 09:05:16;;;;;;;7.30;4.90;;;;;;;15.94;93.75;99991.30;127206;1286;107507;-77
2022/10/25 09:08:48;;;;;;;7.50;5.00;;;;;;;16.04;93.86;99989.28;127143;1282;107544;-79
2022/10/25 09:12:05;;;;;;;8.10;5.60;;;;;;;16.13;92.95;99996.79;127124;1278;107312;-79
2022/10/25 09:15:20;;;;;;;10.40;5.60;;;;;;;16.16;92.72;99999.42;127203;1278;107495;-80
2022/10/25 09:18:36;;;;;;;9.90;5.10;;;;;;;16.23;92.75;99998.70;127116;1285;107602;-79
2022/10/25 09:21:46;;;;;;;9.00;5.60;;;;;;;16.41;92.34;100002.79;127238;1284;106937;-78
2022/10/25 09:24:58;;;;;;;8.20;5.40;;;;;;;16.56;92.15;100000.44;127272;1284;107581;-78
2022/10/25 09:28:09;;;;;;;8.20;5.50;;;;;;;16.70;91.86;100004.90;127419;1286;107551;-77
2022/10/25 09:31:19;;;;;;;10.60;5.60;;;;;;;16.70;91.70;100005.98;127103;1288;108525;-78
2022/10/25 09:34:28;;;;;;;8.60;5.30;;;;;;;16.69;91.93;100006.98;127142;1286;108808;-78
2022/10/25 09:37:40;;;;;;;7.50;5.00;;;;;;;16.68;91.54;100017.58;127254;1286;108018;-77
2022/10/25 09:40:50;;;;;;;7.90;6.20;;;;;;;16.64;91.09;100020.38;126947;1279;107461;-77
2022/10/25 09:44:01;;;;;;;13.30;6.30;;;;;;;16.64;91.27;100015.44;126819;1286;107421;-77
2022/10/25 09:47:21;;;;;;;9.00;5.90;;;;;;;16.59;90.88;100008.28;126793;1278;107564;-77
2022/10/25 09:50:30;;;;;;;8.50;5.50;;;;;;;16.52;91.07;100012.26;126860;1278;107332;-76
2022/10/25 09:53:40;;;;;;;9.10;5.10;;;;;;;16.48;91.01;100015.98;127051;1279;109066;-77
2022/10/25 09:56:46;;;;;;;9.20;5.50;;;;;;;16.50;90.98;100014.54;126899;1279;106542;-75
2022/10/25 09:59:53;;;;;;;7.40;5.50;;;;;;;16.54;91.03;100009.83;126899;1296;107522;-76
2022/10/25 10:02:59;;;;;;;9.30;5.20;;;;;;;16.60;90.73;100009.08;126761;1282;107506;-76
2022/10/25 10:06:09;;;;;;;9.40;5.60;;;;;;;16.64;90.66;100007.56;126871;1279;107377;-78
2022/10/25 10:09:16;;;;;;;11.60;6.30;;;;;;;16.64;90.27;100009.80;126841;1280;107352;-77
2022/10/25 10:12:25;;;;;;;6.60;5.00;;;;;;;16.60;89.99;100007.14;126838;1278;107528;-79
2022/10/25 10:15:37;;;;;;;9.00;5.10;;;;;;;16.56;89.91;100011.05;127080;1295;107360;-78
2022/10/25 10:18:42;;;;;;;;;;;;;;;16.55;89.76;100013.36;126851;1286;107453;-78
2022/10/25 10:21:51;;;;;;;10.20;5.10;;;;;;;16.55;89.91;100008.10;126987;1278;107426;-77
2022/10/25 10:25:03;;;;;;;8.40;5.30;;;;;;;16.55;89.96;100011.33;127102;1284;108603;-76
2022/10/25 10:28:15;;;;;;;8.10;5.20;;;;;;;16.54;89.99;100009.34;127123;1276;107549;-77
2022/10/25 10:31:21;;;;;;;9.30;5.10;;;;;;;16.52;89.87;100005.67;127143;1285;107343;-78
2022/10/25 10:34:30;;;;;;;8.30;4.80;;;;;;;16.51;89.40;100005.23;127145;1278;107518;-80
2022/10/25 10:37:36;;;;;;;7.80;4.70;;;;;;;16.55;89.60;99998.84;126672;1285;465623;-78
2022/10/25 10:40:42;;;;;;;8.80;4.90;;;;;;;16.60;89.39;99998.63;127040;1279;107344;-77
2022/10/25 10:43:47;;;;;;;6.20;4.10;;;;;;;16.62;89.20;100001.46;127184;1279;107494;-76
2022/10/25 10:46:54;;;;;;;5.60;3.90;;;;;;;16.64;89.16;99997.22;127154;1279;107565;-77
2022/10/25 10:50:00;;;;;;;5.50;3.40;;;;;;;16.67;89.23;99997.89;127068;1286;107497;-78
2022/10/25 10:53:19;;;;;;;4.30;3.60;;;;;;;16.73;89.07;100002.17;126958;1279;107397;-77
2022/10/25 10:56:27;;;;;;;5.60;3.90;;;;;;;16.81;89.05;100008.34;127175;1278;107438;-77
2022/10/25 10:59:40;;;;;;;6.10;3.80;;;;;;;16.87;88.68;100012.73;127114;1279;108185;-79
2022/10/25 11:02:47;;;;;;;6.70;3.80;;;;;;;16.94;88.60;100016.45;127093;1285;106691;-79
2022/10/25 11:05:59;;;;;;;7.70;4.10;;;;;;;16.98;88.34;100011.33;127159;1279;106647;-79
2022/10/25 11:09:18;;;;;;;8.20;3.70;;;;;;;16.99;88.10;100016.14;126968;1283;106398;-78
2022/10/25 11:12:23;;;;;;;8.00;3.60;;;;;;;16.96;87.65;100017.45;126928;1279;107519;-77
2022/10/25 11:15:32;;;;;;;6.70;3.90;;;;;;;16.94;87.19;100021.93;126972;1291;107451;-76
2022/10/25 11:18:48;;;;;;;6.20;3.90;;;;;;;16.94;87.62;100021.55;126947;1279;107576;-76
2022/10/25 11:22:17;;;;;;;6.70;3.80;;;;;;;16.97;87.34;100021.02;126932;1278;107536;-78
2022/10/25 11:25:31;;;;;;;7.20;3.50;;;;;;;16.95;86.76;100015.34;126938;1285;107506;-80
2022/10/25 11:28:49;;;;;;;5.70;3.30;;;;;;;16.98;87.39;100015.14;126875;1280;107516;-79
2022/10/25 11:32:04;;;;;;;5.10;4.10;;;;;;;17.06;87.48;100012.64;127036;1279;107392;-80
2022/10/25 11:35:29;;;;;;;6.70;3.70;;;;;;;17.17;87.42;100018.75;127148;1278;107359;-80
2022/10/25 11:38:47;;;;;;;9.70;3.80;;;;;;;17.19;85.07;100017.39;127089;1286;107519;-77
2022/10/25 11:42:00;;;;;;;6.90;3.70;;;;;;;17.17;85.90;100017.50;126899;1278;107490;-80
2022/10/25 11:45:31;;;;;;;6.30;3.70;;;;;;;17.21;86.56;100016.98;127340;1279;107476;-79
2022/10/25 11:49:01;;;;;;;5.40;4.00;;;;;;;17.29;86.23;100021.65;127247;1278;107499;-78
2022/10/25 11:52:29;;;;;;;5.60;3.80;;;;;;;17.36;86.02;100022.54;127083;1278;107473;-78
2022/10/25 11:55:38;;;;;;;7.40;4.50;;;;;;;17.44;85.54;100025.09;126962;1279;107262;-79
2022/10/25 11:58:53;;;;;;;8.40;4.30;;;;;;;17.44;85.14;100026.05;127211;1271;105413;-79
2022/10/25 12:02:19;;;;;;;5.90;3.60;;;;;;;17.41;84.80;100029.77;127106;1286;107210;-78
2022/10/25 12:05:35;;;;;;;6.30;4.10;;;;;;;17.38;83.88;100032.58;127197;1278;107260;-78
2022/10/25 12:08:53;;;;;;;8.60;4.50;;;;;;;17.40;84.13;100029.23;127153;1279;107268;-79
2022/10/25 12:12:01;;;;;;;7.40;4.20;;;;;;;17.45;84.41;100031.60;127093;1279;107482;-79
2022/10/25 12:15:12;;;;;;;9.20;4.20;;;;;;;17.49;84.22;100027.34;126902;1278;107611;-79
2022/10/25 12:18:21;;;;;;;8.10;5.00;;;;;;;17.54;84.40;100027.39;126881;1285;107347;-79
2022/10/25 12:21:31;;;;;;;7.80;4.20;;;;;;;17.60;84.31;100026.50;126915;1279;107570;-80
2022/10/25 12:24:41;;;;;;;6.10;4.00;;;;;;;17.69;84.09;100025.95;127276;1278;107402;-82
2022/10/25 12:27:50;;;;;;;7.10;4.50;;;;;;;17.77;83.93;100027.14;127062;1272;107386;-80
2022/10/25 12:31:01;;;;;;;7.70;4.40;;;;;;;17.75;82.68;100025.85;127229;1278;107400;-81
2022/10/25 12:34:12;;;;;;;7.40;4.20;;;;;;;17.71;82.62;100028.79;127183;1278;107426;-80
2022/10/25 12:37:26;;;;;;;8.30;4.70;;;;;;;17.65;83.14;100025.55;127261;1278;107401;-80
2022/10/25 12:40:40;;;;;;;8.10;4.40;;;;;;;17.61;82.55;100028.98;127009;1285;107502;-79
2022/10/25 12:43:58;;;;;;;7.60;4.50;;;;;;;17.51;81.43;100034.86;127206;1286;107511;-79
2022/10/25 12:47:35;;;;;;;7.60;5.10;;;;;;;17.32;82.17;100035.84;126910;1286;106181;-78
2022/10/25 12:50:58;;;;;;;7.90;4.80;;;;;;;17.16;82.90;100030.55;126833;1270;107382;-80
2022/10/25 12:54:22;;;;;;;6.80;4.60;;;;;;;17.17;83.65;100028.87;127086;1286;107281;-80
2022/10/25 12:57:36;;;;;;;7.40;4.40;;;;;;;17.16;83.86;100030.90;126948;1286;106540;-80
2022/10/25 13:00:56;;;;;;;9.10;5.10;;;;;;;17.20;84.11;100035.26;127161;1278;107238;-80
2022/10/25 13:04:22;;;;;;;11.50;4.30;;;;;;;17.32;84.03;100034.76;127059;1281;107246;-80
2022/10/25 13:07:33;;;;;;;8.70;3.80;;;;;;;17.40;83.90;100034.87;127127;1279;108093;-79
2022/10/25 13:10:48;;;;;;;6.10;3.90;;;;;;;17.57;83.32;100034.20;127117;1279;107232;-79
2022/10/25 13:13:54;;;;;;;7.30;3.80;;;;;;;17.74;83.03;100035.69;127126;1278;108562;-79
2022/10/25 13:17:33;;;;;;;5.80;3.70;;;;;;;17.94;83.08;100042.67;127381;1278;107483;-80
2022/10/25 13:20:52;;;;;;;4.70;3.10;;;;;;;18.19;82.74;100037.03;127287;1282;107569;-80
2022/10/25 13:24:01;;;;;;;6.50;3.20;;;;;;;18.41;82.64;100035.98;127046;1278;107515;-80
2022/10/25 13:27:18;;;;;;;7.40;3.70;;;;;;;18.38;81.57;100040.88;126931;1272;107541;-79
2022/10/25 13:30:30;;;;;;;8.00;3.70;;;;;;;18.22;81.54;100042.17;126930;1288;107349;-79
2022/10/25 13:33:36;;;;;;;6.50;4.30;;;;;;;17.98;79.29;100053.89;127113;1279;106458;-79
2022/10/25 13:36:52;;;;;;;6.00;4.20;;;;;;;17.60;79.24;100055.88;126914;1278;107336;-78
2022/10/25 13:39:59;;;;;;;17.00;9.60;;;;;;;17.35;80.56;100055.39;126927;1279;107510;-79
2022/10/25 13:43:07;;;;;;;20.90;16.10;;;;;;;17.18;80.93;100060.89;126879;1287;107359;-79
2022/10/25 13:46:14;;;;;;;9.50;7.20;;;;;;;16.98;81.12;100062.70;127003;1278;107392;-79
2022/10/25 13:49:36;;;;;;;10.70;6.70;;;;;;;16.82;81.28;100062.08;126853;1278;106244;-78
2022/10/25 13:52:50;;;;;;;11.60;6.20;;;;;;;16.68;81.87;100067.55;126883;1285;107353;-78
2022/10/25 13:56:04;;;;;;;15.80;7.70;;;;;;;16.60;82.37;100071.40;126827;1279;107441;-78
2022/10/25 13:59:36;;;;;;;19.30;12.00;;;;;;;16.57;82.43;100074.70;126902;1272;107132;-78
2022/10/25 14:03:12;;;;;;;14.10;8.00;;;;;;;16.52;82.67;100078.92;126870;1279;107475;-77
2022/10/25 14:06:30;;;;;;;8.60;5.80;;;;;;;16.43;82.27;100083.23;127034;1271;107825;-77
2022/10/25 14:09:38;;;;;;;8.50;5.30;;;;;;;16.38;82.43;100085.87;126958;1278;107514;-78
2022/10/25 14:12:48;;;;;;;7.50;5.70;;;;;;;16.32;82.05;100090.77;127352;1284;109315;-77
2022/10/25 14:16:00;;;;;;;10.40;7.50;;;;;;;16.30;81.98;100093.02;126937;1278;106756;-78
2022/10/25 14:19:14;;;;;;;13.70;9.00;;;;;;;16.24;82.22;100091.52;126954;1272;107481;-77
2022/10/25 14:22:26;;;;;;;7.30;5.20;;;;;;;16.19;82.08;100093.47;126958;1279;106117;-79
2022/10/25 14:25:36;;;;;;;13.30;8.10;;;;;;;16.08;81.66;100094.23;126833;1280;107248;-80